20N weather

Public forecast

Using degrees Fahrenheit for public forecast. Weather courtesy of forecast.io.

Closest aviation weather report (METAR) to Kingston-Ulster Airport

Closest report is Dutchess County Airport, 21.8 nm (40.4 km) S. Retrieved 2020/08/13 07:53 UTC (18 minutes ago):

KPOU 130753Z AUTO 00000KT 10SM CLR 19/18 A3008 RMK AO2 SLP182 T01940178

Closest aviation forecast (TAF) to Kingston-Ulster Airport

Closest forecast is Dutchess County Airport, 21.8 nm (40.4 km) S. Retrieved 2020/08/13 06:27 UTC (2 hours ago):

TAF KPOU 130525Z 1306/1406 VRB03KT P6SM SCT050 BKN200